Aviation Digital Data Service (ADDS)

Output produced by METARs form (2100 UTC 21 February 2017)
found at http://aviationweather.gov/adds/metars/
 
METAR text: KBFM 212053Z 11007KT 6SM -RA BR BKN007 BKN016 OVC027 18/17 A2988 RMK AO2 SLP117 P0017 60036 T01830172 58018
Conditions at: KBFM (MOBILE/BROOKLEY , AL, US) observed 2053 UTC 21 February 2017
Temperature: 18.3°C (65°F)
Dewpoint: 17.2°C (63°F) [RH = 93%]
Pressure (altimeter): 29.88 inches Hg (1011.9 mb)
[Sea-level pressure: 1011.7 mb]
Winds: from the ESE (110 degrees) at 8 MPH (7 knots; 3.6 m/s)
Visibility: 6 miles (10 km)
Ceiling: 700 feet AGL
Clouds: broken clouds at 700 feet AGL
broken clouds at 1600 feet AGL
overcast cloud deck at 2700 feet AGL
Weather: -RA BR  (light rain, mist)